Time;durP1;ratioP1;P1;durP2;ratioP2;P2;SDS_P1;SDS_P2;PMS_P1;PMS_P2;Temp;Humidity;BMP_temperature;BMP_pressure;BME280_temperature;BME280_humidity;BME280_pressure;Samples;Min_cycle;Max_cycle;Signal;HPM_P1;HPM_P2
2024/03/16 00:02:21;;;;;;;;;0.00;0.00;;;;;;;;5057068;28;9115;-80
2024/03/16 00:04:49;;;;;;;;;2.00;0.67;;;;;;;;5073926;28;9900;-80
2024/03/16 00:07:16;;;;;;;;;1.00;1.00;;;;;;;;5075437;28;9095;-80
2024/03/16 00:09:44;;;;;;;;;1.67;0.00;;;;;;;;5078555;28;9186;-80
2024/03/16 00:12:11;;;;;;;;;2.00;0.67;;;;;;;;5082518;28;9023;-78
2024/03/16 00:14:39;;;;;;;;;0.67;0.00;;;;;;;;5097500;28;9130;-79
2024/03/16 00:17:09;;;;;;;;;0.67;0.00;;;;;;;;5077943;28;9921;-80
2024/03/16 00:19:37;;;;;;;;;0.00;0.00;;;;;;;;5104123;28;9161;-80
2024/03/16 00:22:05;;;;;;;;;1.00;1.00;;;;;;;;5073029;28;9066;-80
2024/03/16 00:24:32;;;;;;;;;2.00;0.00;;;;;;;;5075321;28;9074;-80
2024/03/16 00:26:59;;;;;;;;;2.00;0.00;;;;;;;;5076282;28;9070;-80
2024/03/16 00:29:27;;;;;;;;;3.33;1.00;;;;;;;;5075358;28;9085;-79
2024/03/16 00:31:54;;;;;;;;;2.00;1.00;;;;;;;;5072403;28;9028;-80
2024/03/16 00:34:22;;;;;;;;;1.67;1.67;;;;;;;;5092550;28;9185;-79
2024/03/16 00:36:52;;;;;;;;;1.00;1.00;;;;;;;;5072946;28;9094;-78
2024/03/16 00:39:23;;;;;;;;;2.00;0.00;;;;;;;;5059896;28;9088;-79
2024/03/16 00:41:50;;;;;;;;;0.00;0.00;;;;;;;;5073436;28;9318;-79
2024/03/16 00:44:19;;;;;;;;;1.67;0.00;;;;;;;;5072782;28;9189;-80
2024/03/16 00:46:47;;;;;;;;;1.00;1.00;;;;;;;;5072523;28;10042;-80
2024/03/16 00:49:14;;;;;;;;;2.00;1.00;;;;;;;;5073075;28;9081;-80
2024/03/16 00:51:42;;;;;;;;;1.00;1.00;;;;;;;;5072165;28;9176;-80
2024/03/16 00:54:11;;;;;;;;;2.00;2.00;;;;;;;;5072298;28;9170;-80
2024/03/16 00:56:38;;;;;;;;;0.67;0.67;;;;;;;;5072240;28;9270;-80
2024/03/16 00:59:06;;;;;;;;;0.00;0.00;;;;;;;;5071592;28;9104;-80
2024/03/16 01:01:34;;;;;;;;;0.00;0.00;;;;;;;;5071647;28;9156;-80
2024/03/16 01:04:02;;;;;;;;;0.00;0.00;;;;;;;;5106071;28;9255;-80
2024/03/16 01:06:29;;;;;;;;;0.33;0.33;;;;;;;;5072772;28;9170;-80
2024/03/16 01:08:56;;;;;;;;;0.00;0.00;;;;;;;;5071238;28;9093;-80
2024/03/16 01:11:24;;;;;;;;;0.00;0.00;;;;;;;;5107473;28;9104;-80
2024/03/16 01:13:52;;;;;;;;;1.00;1.00;;;;;;;;5076374;28;9255;-80
2024/03/16 01:16:19;;;;;;;;;1.67;1.00;;;;;;;;5076922;28;9253;-80
2024/03/16 01:18:47;;;;;;;;;0.00;0.00;;;;;;;;5076499;28;9188;-79
2024/03/16 01:21:15;;;;;;;;;0.00;0.00;;;;;;;;5076523;28;9083;-79
2024/03/16 01:23:42;;;;;;;;;1.00;0.00;;;;;;;;5076088;28;9178;-80
2024/03/16 01:26:09;;;;;;;;;0.67;0.67;;;;;;;;5074385;28;9214;-79
2024/03/16 01:28:37;;;;;;;;;0.00;0.00;;;;;;;;5071633;28;9337;-79
2024/03/16 01:31:04;;;;;;;;;0.00;0.00;;;;;;;;5070643;28;9184;-80
2024/03/16 01:33:31;;;;;;;;;0.00;0.00;;;;;;;;5071389;28;9233;-77
2024/03/16 01:36:03;;;;;;;;;0.00;0.00;;;;;;;;5068570;28;9212;-79
2024/03/16 01:38:30;;;;;;;;;2.00;0.33;;;;;;;;5105046;28;9165;-79
2024/03/16 01:40:58;;;;;;;;;0.00;0.00;;;;;;;;5071477;28;9185;-79
2024/03/16 01:43:25;;;;;;;;;0.67;0.00;;;;;;;;5070957;28;9084;-79
2024/03/16 01:45:52;;;;;;;;;1.00;0.00;;;;;;;;5065564;28;9206;-79
2024/03/16 01:48:20;;;;;;;;;0.00;0.00;;;;;;;;5069010;28;9110;-78
2024/03/16 01:50:49;;;;;;;;;0.00;0.00;;;;;;;;5102859;28;9243;-79
2024/03/16 01:53:17;;;;;;;;;0.00;0.00;;;;;;;;5104259;28;9228;-79
2024/03/16 01:55:44;;;;;;;;;0.00;0.00;;;;;;;;5072614;28;9212;-79
2024/03/16 01:58:11;;;;;;;;;0.00;0.00;;;;;;;;5106070;28;9393;-79
2024/03/16 02:00:40;;;;;;;;;1.00;0.00;;;;;;;;5074814;28;9268;-79
2024/03/16 02:03:07;;;;;;;;;0.00;0.00;;;;;;;;5070257;28;9320;-79
2024/03/16 02:05:36;;;;;;;;;0.00;0.00;;;;;;;;5104152;28;10207;-80
2024/03/16 02:08:04;;;;;;;;;0.00;0.00;;;;;;;;5071051;28;9357;-80
2024/03/16 02:10:34;;;;;;;;;0.00;0.00;;;;;;;;5070597;28;9369;-80
2024/03/16 02:13:02;;;;;;;;;1.33;0.00;;;;;;;;5070499;28;9481;-79
2024/03/16 02:15:32;;;;;;;;;0.00;0.00;;;;;;;;5071192;28;9316;-80
2024/03/16 02:17:59;;;;;;;;;0.00;0.00;;;;;;;;5071558;28;9181;-79
2024/03/16 02:20:27;;;;;;;;;0.00;0.00;;;;;;;;5071879;28;9194;-79
2024/03/16 02:22:54;;;;;;;;;0.00;0.00;;;;;;;;5073298;28;9295;-78
2024/03/16 02:25:23;;;;;;;;;0.00;0.00;;;;;;;;5070618;28;9530;-79
2024/03/16 02:27:50;;;;;;;;;0.00;0.00;;;;;;;;5070760;28;9430;-79
2024/03/16 02:30:19;;;;;;;;;0.00;0.00;;;;;;;;5069833;28;9377;-79
2024/03/16 02:32:46;;;;;;;;;0.00;0.00;;;;;;;;5071087;28;9190;-79
2024/03/16 02:35:13;;;;;;;;;0.00;0.00;;;;;;;;5096696;28;9170;-79
2024/03/16 02:37:41;;;;;;;;;0.00;0.00;;;;;;;;5070532;28;9307;-79
2024/03/16 02:40:11;;;;;;;;;0.00;0.00;;;;;;;;5094656;28;9197;-79
2024/03/16 02:42:39;;;;;;;;;0.00;0.00;;;;;;;;5064580;28;9174;-79
2024/03/16 02:45:07;;;;;;;;;0.00;0.00;;;;;;;;5096084;28;9262;-78
2024/03/16 02:47:34;;;;;;;;;0.00;0.00;;;;;;;;5103765;28;9978;-79
2024/03/16 02:50:03;;;;;;;;;0.00;0.00;;;;;;;;5097376;28;9170;-79
2024/03/16 02:52:33;;;;;;;;;0.00;0.00;;;;;;;;5072519;28;10086;-79
2024/03/16 02:55:01;;;;;;;;;0.00;0.00;;;;;;;;5075666;28;9247;-79
2024/03/16 02:57:28;;;;;;;;;0.00;0.00;;;;;;;;5106083;28;9304;-80
2024/03/16 02:59:56;;;;;;;;;0.00;0.00;;;;;;;;5105690;28;9342;-80
2024/03/16 03:02:23;;;;;;;;;0.00;0.00;;;;;;;;5073391;28;9218;-80
2024/03/16 03:04:51;;;;;;;;;0.00;0.00;;;;;;;;5075468;28;9273;-80
2024/03/16 03:07:18;;;;;;;;;0.00;0.00;;;;;;;;5074942;28;9355;-80
2024/03/16 03:09:46;;;;;;;;;0.00;0.00;;;;;;;;5075568;28;9202;-79
2024/03/16 03:12:13;;;;;;;;;0.00;0.00;;;;;;;;5075066;28;9305;-80
2024/03/16 03:14:40;;;;;;;;;0.00;0.00;;;;;;;;5074621;28;9100;-79
2024/03/16 03:17:09;;;;;;;;;1.00;1.00;;;;;;;;5064806;28;9261;-78
2024/03/16 03:19:36;;;;;;;;;0.00;0.00;;;;;;;;5064161;28;9172;-80
2024/03/16 03:22:03;;;;;;;;;0.00;0.00;;;;;;;;5104841;28;9076;-79
2024/03/16 03:24:31;;;;;;;;;0.00;0.00;;;;;;;;5074127;28;9243;-80
2024/03/16 03:26:58;;;;;;;;;0.33;0.33;;;;;;;;5100759;28;9283;-80
2024/03/16 03:29:26;;;;;;;;;4.00;1.00;;;;;;;;5073906;28;9273;-80
2024/03/16 03:31:56;;;;;;;;;1.00;1.00;;;;;;;;5099371;28;9309;-80
2024/03/16 03:34:24;;;;;;;;;0.67;0.67;;;;;;;;5074517;28;9067;-79
2024/03/16 03:36:51;;;;;;;;;0.33;0.00;;;;;;;;5099273;28;9084;-80
2024/03/16 03:39:18;;;;;;;;;0.00;0.00;;;;;;;;5073038;28;9246;-79
2024/03/16 03:41:45;;;;;;;;;0.00;0.00;;;;;;;;5106611;28;9350;-79
2024/03/16 03:44:23;;;;;;;;;0.67;0.67;;;;;;;;5074308;28;9205;-80
2024/03/16 03:46:51;;;;;;;;;1.00;1.00;;;;;;;;5078351;28;9251;-80
2024/03/16 03:49:29;;;;;;;;;0.00;0.00;;;;;;;;5103271;28;9272;-79
2024/03/16 03:51:58;;;;;;;;;2.00;1.00;;;;;;;;5074514;28;9224;-79
2024/03/16 03:54:25;;;;;;;;;1.00;1.00;;;;;;;;5099790;28;9266;-79
2024/03/16 03:56:53;;;;;;;;;1.00;1.00;;;;;;;;5105347;28;9971;-80
2024/03/16 03:59:20;;;;;;;;;1.00;1.00;;;;;;;;5072923;28;10067;-80
2024/03/16 04:01:47;;;;;;;;;1.00;1.00;;;;;;;;5069133;28;9102;-80
2024/03/16 04:04:15;;;;;;;;;1.00;1.00;;;;;;;;5052516;28;9193;-80
2024/03/16 04:06:44;;;;;;;;;1.00;1.00;;;;;;;;5053296;28;9270;-79
2024/03/16 04:09:13;;;;;;;;;1.00;1.00;;;;;;;;5053514;28;9372;-79
2024/03/16 04:11:40;;;;;;;;;1.00;1.00;;;;;;;;5053645;28;9259;-80
2024/03/16 04:14:08;;;;;;;;;1.00;1.00;;;;;;;;5049261;28;9409;-79
2024/03/16 04:16:35;;;;;;;;;2.00;2.00;;;;;;;;5043994;28;9267;-79
2024/03/16 04:19:03;;;;;;;;;1.33;1.33;;;;;;;;5052461;28;9282;-80
2024/03/16 04:21:31;;;;;;;;;2.00;2.00;;;;;;;;5053283;28;9253;-79
2024/03/16 04:23:58;;;;;;;;;2.67;2.67;;;;;;;;5052437;28;9453;-79
2024/03/16 04:26:25;;;;;;;;;4.33;2.33;;;;;;;;5052554;28;9338;-79
2024/03/16 04:28:53;;;;;;;;;2.00;2.00;;;;;;;;5048402;28;9405;-80
2024/03/16 04:31:20;;;;;;;;;2.00;2.00;;;;;;;;5044643;28;9354;-79
2024/03/16 04:33:47;;;;;;;;;2.67;2.67;;;;;;;;5055423;28;9394;-79
2024/03/16 04:36:15;;;;;;;;;2.00;2.00;;;;;;;;5054496;28;9347;-79
2024/03/16 04:38:43;;;;;;;;;2.00;2.00;;;;;;;;5069088;28;9558;-79
2024/03/16 04:41:12;;;;;;;;;4.00;1.00;;;;;;;;5071364;28;9340;-80
2024/03/16 04:43:41;;;;;;;;;2.00;2.00;;;;;;;;5070107;28;10228;-79
2024/03/16 04:46:08;;;;;;;;;2.00;2.00;;;;;;;;5056513;28;10293;-78
2024/03/16 04:48:36;;;;;;;;;5.00;2.67;;;;;;;;5051712;28;9333;-78
2024/03/16 04:51:03;;;;;;;;;2.33;2.33;;;;;;;;5069001;28;9588;-79
2024/03/16 04:53:31;;;;;;;;;1.00;1.00;;;;;;;;5073475;28;9447;-80
2024/03/16 04:55:58;;;;;;;;;2.75;2.75;;;;;;;;5059307;28;9459;-78
2024/03/16 04:58:26;;;;;;;;;0.00;0.00;;;;;;;;5057544;28;9515;-78
2024/03/16 05:00:53;;;;;;;;;3.25;3.25;;;;;;;;5056928;28;9345;-78
2024/03/16 05:03:21;;;;;;;;;3.00;3.00;;;;;;;;5073738;28;9554;-79
2024/03/16 05:05:50;;;;;;;;;2.25;2.25;;;;;;;;5071178;28;9466;-79
2024/03/16 05:08:18;;;;;;;;;2.00;2.00;;;;;;;;5068854;28;9428;-79
2024/03/16 05:10:51;;;;;;;;;3.00;3.00;;;;;;;;5067851;28;9374;-79
2024/03/16 05:13:19;;;;;;;;;3.00;2.00;;;;;;;;5052687;28;9473;-80
2024/03/16 05:15:46;;;;;;;;;3.00;3.00;;;;;;;;5051647;28;9467;-80
2024/03/16 05:18:14;;;;;;;;;5.00;3.75;;;;;;;;5050679;28;9656;-79
2024/03/16 05:20:46;;;;;;;;;3.00;3.00;;;;;;;;5067041;28;10230;-79
2024/03/16 05:23:14;;;;;;;;;2.25;2.25;;;;;;;;5067708;28;9549;-78
2024/03/16 05:25:42;;;;;;;;;4.50;2.00;;;;;;;;5067367;28;9740;-80
2024/03/16 05:28:09;;;;;;;;;3.50;3.50;;;;;;;;5067448;28;9488;-78
2024/03/16 05:30:38;;;;;;;;;2.00;2.00;;;;;;;;5053896;28;9541;-80
2024/03/16 05:33:04;;;;;;;;;1.00;1.00;;;;;;;;5052850;28;9675;-80
2024/03/16 05:35:32;;;;;;;;;1.75;1.75;;;;;;;;5054282;28;9612;-80
2024/03/16 05:37:59;;;;;;;;;4.75;1.00;;;;;;;;5054383;28;9707;-79
2024/03/16 05:40:27;;;;;;;;;2.75;2.75;;;;;;;;5038258;28;9581;-78
2024/03/16 05:42:54;;;;;;;;;3.75;3.00;;;;;;;;5063537;28;10416;-79
2024/03/16 05:45:22;;;;;;;;;6.00;4.00;;;;;;;;5050279;28;9588;-80
2024/03/16 05:47:48;;;;;;;;;2.25;2.25;;;;;;;;5066547;28;9731;-79
2024/03/16 05:50:15;;;;;;;;;2.00;2.00;;;;;;;;5066522;28;9460;-79
2024/03/16 05:52:43;;;;;;;;;5.25;5.25;;;;;;;;5066386;28;11387;-78
2024/03/16 05:55:10;;;;;;;;;3.00;3.00;;;;;;;;5050200;28;9545;-78
2024/03/16 05:57:37;;;;;;;;;2.75;2.75;;;;;;;;5066685;28;9481;-78
2024/03/16 06:00:13;;;;;;;;;3.00;3.00;;;;;;;;5069208;28;9479;-79
2024/03/16 06:02:41;;;;;;;;;2.00;2.00;;;;;;;;5075863;28;9625;-77
2024/03/16 06:05:10;;;;;;;;;3.00;3.00;;;;;;;;5070234;28;9764;-78
2024/03/16 06:07:38;;;;;;;;;4.25;3.50;;;;;;;;5070667;28;9700;-78
2024/03/16 06:10:10;;;;;;;;;2.75;2.75;;;;;;;;5070540;28;9566;-77
2024/03/16 06:12:37;;;;;;;;;3.25;3.25;;;;;;;;5069748;28;9469;-77
2024/03/16 06:15:06;;;;;;;;;3.75;3.50;;;;;;;;5069784;28;9820;-78
2024/03/16 06:17:36;;;;;;;;;3.75;3.75;;;;;;;;5070619;28;9889;-77
2024/03/16 06:20:09;;;;;;;;;4.00;4.00;;;;;;;;5071032;28;9845;-78
2024/03/16 06:22:38;;;;;;;;;6.00;4.50;;;;;;;;5058585;28;9609;-77
2024/03/16 06:25:06;;;;;;;;;5.75;4.00;;;;;;;;5071136;28;9772;-76
2024/03/16 06:27:40;;;;;;;;;3.50;3.50;;;;;;;;5070695;28;9704;-78
2024/03/16 06:30:09;;;;;;;;;3.50;3.50;;;;;;;;5070958;28;10652;-78
2024/03/16 06:32:38;;;;;;;;;4.00;4.00;;;;;;;;5060785;28;10481;-77
2024/03/16 06:35:06;;;;;;;;;4.75;3.25;;;;;;;;5050688;28;9845;-76
2024/03/16 06:37:36;;;;;;;;;3.25;3.25;;;;;;;;5052413;28;9888;-76
2024/03/16 06:40:04;;;;;;;;;5.25;3.75;;;;;;;;5054017;28;9677;-77
2024/03/16 06:42:31;;;;;;;;;3.00;3.00;;;;;;;;5053771;28;9623;-77
2024/03/16 06:44:59;;;;;;;;;3.50;3.50;;;;;;;;5053226;28;9719;-79
2024/03/16 06:47:27;;;;;;;;;5.00;5.00;;;;;;;;5054052;28;9737;-78
2024/03/16 06:49:54;;;;;;;;;3.00;3.00;;;;;;;;5053924;28;9775;-77
2024/03/16 06:52:24;;;;;;;;;4.50;4.00;;;;;;;;5053516;28;9626;-77
2024/03/16 06:54:52;;;;;;;;;4.00;4.00;;;;;;;;5050396;28;9628;-75
2024/03/16 06:57:19;;;;;;;;;3.75;3.75;;;;;;;;5044735;28;9629;-77
2024/03/16 06:59:47;;;;;;;;;5.00;5.00;;;;;;;;5053763;28;9622;-77
2024/03/16 07:02:14;;;;;;;;;3.00;3.00;;;;;;;;5059861;28;9599;-74
2024/03/16 07:04:42;;;;;;;;;3.00;3.00;;;;;;;;5055616;28;9650;-76
2024/03/16 07:07:10;;;;;;;;;3.00;3.00;;;;;;;;5051651;28;9616;-77
2024/03/16 07:09:37;;;;;;;;;2.50;2.50;;;;;;;;5050214;28;9567;-77
2024/03/16 07:12:05;;;;;;;;;4.00;3.00;;;;;;;;5046072;28;9471;-76
2024/03/16 07:14:32;;;;;;;;;3.75;3.75;;;;;;;;5049744;28;9417;-77
2024/03/16 07:17:00;;;;;;;;;4.00;3.00;;;;;;;;5048975;28;9409;-76
2024/03/16 07:19:28;;;;;;;;;5.00;3.00;;;;;;;;5042662;28;9414;-77
2024/03/16 07:21:55;;;;;;;;;1.00;1.00;;;;;;;;5053518;28;9494;-80
2024/03/16 07:24:23;;;;;;;;;5.75;5.75;;;;;;;;5055282;28;9561;-77
2024/03/16 07:26:50;;;;;;;;;4.50;4.50;;;;;;;;5044970;28;9783;-76
2024/03/16 07:29:18;;;;;;;;;8.00;6.75;;;;;;;;5053107;28;9582;-77
2024/03/16 07:31:47;;;;;;;;;5.00;3.50;;;;;;;;5053877;28;9638;-76
2024/03/16 07:34:15;;;;;;;;;8.50;8.50;;;;;;;;5053685;28;10295;-74
2024/03/16 07:36:42;;;;;;;;;4.75;4.75;;;;;;;;5052319;28;9824;-75
2024/03/16 07:39:13;;;;;;;;;5.00;5.00;;;;;;;;5053475;28;9538;-75
2024/03/16 07:41:40;;;;;;;;;5.00;5.00;;;;;;;;5052165;28;9619;-75
2024/03/16 07:44:07;;;;;;;;;8.75;7.00;;;;;;;;5052828;28;10314;-75
2024/03/16 07:46:35;;;;;;;;;6.00;5.50;;;;;;;;5052764;28;9709;-74
2024/03/16 07:49:03;;;;;;;;;7.00;7.00;;;;;;;;5053161;28;9489;-75
2024/03/16 07:51:31;;;;;;;;;4.50;4.50;;;;;;;;5052707;28;9668;-74
2024/03/16 07:54:01;;;;;;;;;5.25;5.25;;;;;;;;5054297;28;9568;-76
2024/03/16 07:56:32;;;;;;;;;11.25;9.50;;;;;;;;5071950;28;9556;-80
2024/03/16 07:58:59;;;;;;;;;6.67;6.00;;;;;;;;5053268;28;9703;-75
2024/03/16 08:01:26;;;;;;;;;5.00;5.00;;;;;;;;5051659;28;9292;-76
2024/03/16 08:03:54;;;;;;;;;4.67;4.67;;;;;;;;5069065;28;9502;-75
2024/03/16 08:06:21;;;;;;;;;6.67;5.33;;;;;;;;5052333;28;9450;-76
2024/03/16 08:08:49;;;;;;;;;2.00;2.00;;;;;;;;5051991;28;9324;-76
2024/03/16 08:11:20;;;;;;;;;6.00;4.33;;;;;;;;5053002;28;9390;-75
2024/03/16 08:13:47;;;;;;;;;5.00;4.67;;;;;;;;5052800;28;10207;-75
2024/03/16 08:16:15;;;;;;;;;7.67;6.67;;;;;;;;5068992;28;9328;-75
2024/03/16 08:18:42;;;;;;;;;4.67;4.67;;;;;;;;5068226;28;9349;-75
2024/03/16 08:21:12;;;;;;;;;7.00;7.00;;;;;;;;5052449;28;9254;-75
2024/03/16 08:23:40;;;;;;;;;6.00;5.00;;;;;;;;5070145;28;9374;-74
2024/03/16 08:26:07;;;;;;;;;7.00;5.67;;;;;;;;5054610;28;9193;-75
2024/03/16 08:28:35;;;;;;;;;5.33;5.33;;;;;;;;5071138;28;9249;-74
2024/03/16 08:31:05;;;;;;;;;4.67;4.67;;;;;;;;5066352;28;9175;-74
2024/03/16 08:33:33;;;;;;;;;5.33;5.33;;;;;;;;5055481;28;9203;-76
2024/03/16 08:36:00;;;;;;;;;5.00;5.00;;;;;;;;5055909;28;9395;-76
2024/03/16 08:38:28;;;;;;;;;5.00;3.33;;;;;;;;5054832;28;9466;-76
2024/03/16 08:40:56;;;;;;;;;5.67;5.67;;;;;;;;5056466;28;9014;-75
2024/03/16 08:43:26;;;;;;;;;5.00;5.00;;;;;;;;5052481;28;10066;-75
2024/03/16 08:45:53;;;;;;;;;7.67;7.67;;;;;;;;5052721;28;9037;-77
2024/03/16 08:48:20;;;;;;;;;4.00;4.00;;;;;;;;5051485;28;9275;-76
2024/03/16 08:53:32;;;;;;;;;5.67;5.67;;;;;;;;5052434;28;9024;-75
2024/03/16 08:56:01;;;;;;;;;4.67;4.67;;;;;;;;5051727;28;9040;-76
2024/03/16 08:58:29;;;;;;;;;4.25;4.25;;;;;;;;5051919;28;9038;-76
2024/03/16 09:00:58;;;;;;;;;5.75;5.75;;;;;;;;5058609;28;9773;-76
2024/03/16 09:03:28;;;;;;;;;7.25;5.25;;;;;;;;5072214;28;8905;-78
2024/03/16 09:05:55;;;;;;;;;6.25;5.50;;;;;;;;5072407;28;9531;-77
2024/03/16 09:08:29;;;;;;;;;5.25;5.25;;;;;;;;5073023;28;9014;-76
2024/03/16 09:10:59;;;;;;;;;33.33;21.33;;;;;;;;5073823;28;8852;-77
2024/03/16 09:13:29;;;;;;;;;5.00;5.00;;;;;;;;5073390;28;9062;-78
2024/03/16 09:16:06;;;;;;;;;38.50;31.50;;;;;;;;5072389;28;8852;-81
2024/03/16 09:18:34;;;;;;;;;9.25;7.00;;;;;;;;5073940;28;9615;-78
2024/03/16 09:21:13;;;;;;;;;4.25;4.25;;;;;;;;5101934;28;8868;-78
2024/03/16 09:23:40;;;;;;;;;4.25;4.00;;;;;;;;5071525;28;8860;-78
2024/03/16 09:26:08;;;;;;;;;4.00;4.00;;;;;;;;5071658;28;8975;-77
2024/03/16 09:28:38;;;;;;;;;3.75;3.75;;;;;;;;5071147;28;9735;-78
2024/03/16 09:31:11;;;;;;;;;2.25;2.25;;;;;;;;5061195;28;8936;-77
2024/03/16 09:33:39;;;;;;;;;3.25;3.25;;;;;;;;5071736;28;8866;-77
2024/03/16 09:36:18;;;;;;;;;4.00;4.00;;;;;;;;5072234;28;8840;-78
2024/03/16 09:38:45;;;;;;;;;3.25;2.75;;;;;;;;5072000;28;8880;-78
2024/03/16 09:41:13;;;;;;;;;3.75;3.75;;;;;;;;5069189;28;8850;-78
2024/03/16 09:43:40;;;;;;;;;3.50;2.50;;;;;;;;5067439;28;8847;-78
2024/03/16 09:46:11;;;;;;;;;3.00;3.00;;;;;;;;5099860;28;8868;-78
2024/03/16 09:48:50;;;;;;;;;6.25;3.75;;;;;;;;5060297;28;8860;-80
2024/03/16 09:54:08;;;;;;;;;6.00;4.50;;;;;;;;5066329;28;8903;-78
2024/03/16 09:56:35;;;;;;;;;4.00;4.00;;;;;;;;5066544;28;8874;-84
2024/03/16 09:59:03;;;;;;;;;5.00;5.00;;;;;;;;5097580;28;8939;-78
2024/03/16 10:01:34;;;;;;;;;6.25;4.50;;;;;;;;5070097;28;8911;-79
2024/03/16 10:04:01;;;;;;;;;4.00;4.00;;;;;;;;5071009;28;8852;-78
2024/03/16 10:06:32;;;;;;;;;5.50;4.25;;;;;;;;5068882;28;9262;-81
2024/03/16 10:09:10;;;;;;;;;3.75;3.75;;;;;;;;5068164;28;9681;-78
2024/03/16 10:11:38;;;;;;;;;24.33;24.00;;;;;;;;5064493;28;8844;-78
2024/03/16 10:14:07;;;;;;;;;5.50;5.50;;;;;;;;5095965;28;9206;-78
2024/03/16 10:16:35;;;;;;;;;6.00;6.00;;;;;;;;5099360;28;8843;-79
2024/03/16 10:19:06;;;;;;;;;4.00;4.00;;;;;;;;5070727;28;8856;-78
2024/03/16 10:21:33;;;;;;;;;4.25;4.25;;;;;;;;5106503;28;8848;-79
2024/03/16 10:24:00;;;;;;;;;2.25;2.25;;;;;;;;5105878;28;8868;-79
2024/03/16 10:26:30;;;;;;;;;6.25;6.25;;;;;;;;5072908;28;8848;-79
2024/03/16 10:28:59;;;;;;;;;7.75;6.25;;;;;;;;5103494;28;8844;-79
2024/03/16 10:31:27;;;;;;;;;6.50;5.25;;;;;;;;5069366;28;8815;-78
2024/03/16 10:33:57;;;;;;;;;7.00;6.75;;;;;;;;5069228;28;8871;-77
2024/03/16 10:36:24;;;;;;;;;5.25;5.00;;;;;;;;5098358;28;9003;-78
2024/03/16 10:38:53;;;;;;;;;7.50;5.75;;;;;;;;5059368;28;8844;-77
2024/03/16 10:41:22;;;;;;;;;4.00;4.00;;;;;;;;5069502;28;8852;-78
2024/03/16 10:43:50;;;;;;;;;4.00;4.00;;;;;;;;5070138;28;8844;-78
2024/03/16 10:46:17;;;;;;;;;4.00;4.00;;;;;;;;5068214;28;9002;-76
2024/03/16 10:48:44;;;;;;;;;5.50;4.00;;;;;;;;5065534;28;8866;-76
2024/03/16 10:51:13;;;;;;;;;4.75;4.75;;;;;;;;5095828;28;8835;-78
2024/03/16 10:53:45;;;;;;;;;4.00;4.00;;;;;;;;5069508;28;8886;-78
2024/03/16 10:56:14;;;;;;;;;5.25;5.25;;;;;;;;5071725;28;8852;-79
2024/03/16 10:58:42;;;;;;;;;3.00;3.00;;;;;;;;5073481;28;8990;-78
2024/03/16 11:01:09;;;;;;;;;4.50;4.50;;;;;;;;5071333;28;8828;-78
2024/03/16 11:03:38;;;;;;;;;3.75;3.25;;;;;;;;5070821;28;8868;-79
2024/03/16 11:06:09;;;;;;;;;4.75;4.75;;;;;;;;5069716;28;8817;-77
2024/03/16 11:08:41;;;;;;;;;6.00;4.00;;;;;;;;5070903;28;8863;-77
2024/03/16 11:11:10;;;;;;;;;6.50;4.50;;;;;;;;5069848;28;8856;-79
2024/03/16 11:13:37;;;;;;;;;8.00;4.75;;;;;;;;5070059;28;8898;-77
2024/03/16 11:16:25;;;;;;;;;6.00;5.00;;;;;;;;5068805;28;8872;-76
2024/03/16 11:18:55;;;;;;;;;6.75;5.00;;;;;;;;5086191;28;8836;-77
2024/03/16 11:21:23;;;;;;;;;5.00;5.00;;;;;;;;5069463;28;8902;-75
2024/03/16 11:23:51;;;;;;;;;4.00;4.00;;;;;;;;5069641;28;8838;-76
2024/03/16 11:26:40;;;;;;;;;5.50;4.00;;;;;;;;5069461;28;8856;-77
2024/03/16 11:29:09;;;;;;;;;3.25;3.25;;;;;;;;5070935;28;8872;-78
2024/03/16 11:31:41;;;;;;;;;3.75;3.75;;;;;;;;5069480;28;9579;-77
2024/03/16 11:34:08;;;;;;;;;4.25;4.25;;;;;;;;5060393;28;8876;-77
2024/03/16 11:36:38;;;;;;;;;3.25;3.25;;;;;;;;5069880;28;8837;-78
2024/03/16 11:39:16;;;;;;;;;5.00;3.50;;;;;;;;5069807;28;8862;-77
2024/03/16 11:41:43;;;;;;;;;4.50;4.50;;;;;;;;5070807;28;8986;-77
2024/03/16 11:44:12;;;;;;;;;5.00;5.00;;;;;;;;5072260;28;8902;-76
2024/03/16 11:46:40;;;;;;;;;3.75;3.75;;;;;;;;5073442;28;8883;-78
2024/03/16 11:49:09;;;;;;;;;5.50;5.50;;;;;;;;5073389;28;8883;-77
2024/03/16 11:51:37;;;;;;;;;7.50;5.00;;;;;;;;5073246;28;8852;-80
2024/03/16 11:54:07;;;;;;;;;4.75;4.75;;;;;;;;5072790;28;8848;-78
2024/03/16 11:56:34;;;;;;;;;3.75;3.75;;;;;;;;5074460;28;8848;-78
2024/03/16 11:59:03;;;;;;;;;5.25;5.25;;;;;;;;5075236;28;8860;-77
2024/03/16 12:01:32;;;;;;;;;4.25;4.25;;;;;;;;5076296;28;9666;-77
2024/03/16 12:03:59;;;;;;;;;4.75;4.75;;;;;;;;5076302;28;8847;-77
2024/03/16 12:06:27;;;;;;;;;7.25;5.25;;;;;;;;5075714;28;8897;-77
2024/03/16 12:08:53;;;;;;;;;4.75;4.75;;;;;;;;5075609;28;8872;-78
2024/03/16 12:11:20;;;;;;;;;5.00;3.75;;;;;;;;5075625;28;8860;-78
2024/03/16 12:13:47;;;;;;;;;3.25;3.00;;;;;;;;5075612;28;8995;-77
2024/03/16 12:16:14;;;;;;;;;3.50;3.00;;;;;;;;5072640;28;8852;-76
2024/03/16 12:18:40;;;;;;;;;4.75;4.50;;;;;;;;5072371;28;8848;-76
2024/03/16 12:21:12;;;;;;;;;3.00;1.25;;;;;;;;5073379;28;8876;-77
2024/03/16 12:23:38;;;;;;;;;4.00;2.25;;;;;;;;5074447;28;8901;-77
2024/03/16 12:26:09;;;;;;;;;2.50;2.50;;;;;;;;5072508;28;9625;-76
2024/03/16 12:28:36;;;;;;;;;3.50;3.50;;;;;;;;5072687;28;8932;-77
2024/03/16 12:31:04;;;;;;;;;2.60;2.60;;;;;;;;5071721;28;8899;-77
2024/03/16 12:33:32;;;;;;;;;3.00;3.00;;;;;;;;5054321;28;9699;-76
2024/03/16 12:36:02;;;;;;;;;4.20;4.20;;;;;;;;5052427;28;8882;-76
2024/03/16 12:38:30;;;;;;;;;3.40;3.40;;;;;;;;5052308;28;8854;-76
2024/03/16 12:41:01;;;;;;;;;1.00;1.00;;;;;;;;5049124;28;8908;-75
2024/03/16 12:43:27;;;;;;;;;4.75;4.75;;;;;;;;5053592;28;8867;-77
2024/03/16 12:45:58;;;;;;;;;4.75;3.25;;;;;;;;5055004;28;8933;-80
2024/03/16 12:48:25;;;;;;;;;3.00;3.00;;;;;;;;5054079;28;8847;-78
2024/03/16 12:50:52;;;;;;;;;5.25;3.50;;;;;;;;5049469;28;9027;-79
2024/03/16 12:53:19;;;;;;;;;3.75;3.75;;;;;;;;5047380;28;8861;-76
2024/03/16 12:55:46;;;;;;;;;7.00;5.25;;;;;;;;5046962;28;8895;-78
2024/03/16 12:58:13;;;;;;;;;3.75;2.75;;;;;;;;5056368;28;8868;-76
2024/03/16 13:00:42;;;;;;;;;3.20;3.20;;;;;;;;5062125;28;9535;-76
2024/03/16 13:03:14;;;;;;;;;4.60;4.60;;;;;;;;5105592;28;8920;-77
2024/03/16 13:05:40;;;;;;;;;3.40;3.40;;;;;;;;5071967;28;8856;-79
2024/03/16 13:08:10;;;;;;;;;3.00;3.00;;;;;;;;5071305;28;8977;-79
2024/03/16 13:13:33;;;;;;;;;4.80;4.40;;;;;;;;5065834;28;8902;-77
2024/03/16 13:16:01;;;;;;;;;4.40;4.40;;;;;;;;5070972;28;8837;-78
2024/03/16 13:18:30;;;;;;;;;4.60;4.00;;;;;;;;5071415;28;8875;-77
2024/03/16 13:20:56;;;;;;;;;5.80;3.80;;;;;;;;5099028;28;9621;-77
2024/03/16 13:23:23;;;;;;;;;4.00;4.00;;;;;;;;5065213;28;8948;-78
2024/03/16 13:25:51;;;;;;;;;4.00;4.00;;;;;;;;5104600;28;8860;-77
2024/03/16 13:28:20;;;;;;;;;7.00;4.40;;;;;;;;5070585;28;8905;-78
2024/03/16 13:30:46;;;;;;;;;3.80;3.80;;;;;;;;5059498;28;8785;-78
2024/03/16 13:33:14;;;;;;;;;6.60;5.00;;;;;;;;5070076;28;8931;-78
2024/03/16 13:35:42;;;;;;;;;3.00;3.00;;;;;;;;5070929;28;8998;-78
2024/03/16 13:38:11;;;;;;;;;4.00;4.00;;;;;;;;5071157;28;8848;-79
2024/03/16 13:40:38;;;;;;;;;3.60;3.60;;;;;;;;5072302;28;9611;-78
2024/03/16 13:43:08;;;;;;;;;3.60;3.00;;;;;;;;5069246;28;8841;-78
2024/03/16 13:45:35;;;;;;;;;3.20;3.20;;;;;;;;5073415;28;9790;-78
2024/03/16 13:48:01;;;;;;;;;4.60;4.60;;;;;;;;5074481;28;8868;-77
2024/03/16 13:50:29;;;;;;;;;4.00;4.00;;;;;;;;5074158;28;8841;-78
2024/03/16 13:52:56;;;;;;;;;6.80;5.60;;;;;;;;5073008;28;8895;-78
2024/03/16 13:55:22;;;;;;;;;3.60;3.60;;;;;;;;5075400;28;8874;-79
2024/03/16 13:57:50;;;;;;;;;5.20;5.20;;;;;;;;5070991;28;8897;-78
2024/03/16 14:00:18;;;;;;;;;5.60;5.60;;;;;;;;5072648;28;8861;-77
2024/03/16 14:02:46;;;;;;;;;5.60;5.00;;;;;;;;5071377;28;8856;-78
2024/03/16 14:05:13;;;;;;;;;4.60;3.00;;;;;;;;5069690;28;8860;-79
2024/03/16 14:07:40;;;;;;;;;3.60;3.60;;;;;;;;5070069;28;8856;-76
2024/03/16 14:10:08;;;;;;;;;4.00;4.00;;;;;;;;5070217;28;8955;-78
2024/03/16 14:12:35;;;;;;;;;12.60;8.20;;;;;;;;5069805;28;8852;-77
2024/03/16 14:15:03;;;;;;;;;6.40;3.60;;;;;;;;5070071;28;8885;-78
2024/03/16 14:17:30;;;;;;;;;6.60;5.20;;;;;;;;5070119;28;8840;-77
2024/03/16 14:19:57;;;;;;;;;7.00;4.60;;;;;;;;5069947;28;8932;-79
2024/03/16 14:22:25;;;;;;;;;4.00;4.00;;;;;;;;5069398;28;8884;-78
2024/03/16 14:24:52;;;;;;;;;0.00;0.00;;;;;;;;5066785;28;8847;-78
2024/03/16 14:27:19;;;;;;;;;4.80;4.80;;;;;;;;5102157;28;8848;-77
2024/03/16 14:29:45;;;;;;;;;3.60;3.60;;;;;;;;5071083;28;8888;-76
2024/03/16 14:32:13;;;;;;;;;5.00;4.00;;;;;;;;5072158;28;8808;-77
2024/03/16 14:34:41;;;;;;;;;4.20;3.00;;;;;;;;5073531;28;8872;-76
2024/03/16 14:37:09;;;;;;;;;5.60;5.00;;;;;;;;5072620;28;8848;-77
2024/03/16 14:39:35;;;;;;;;;3.60;2.60;;;;;;;;5069729;28;9311;-77
2024/03/16 14:42:03;;;;;;;;;3.80;3.80;;;;;;;;5069266;28;8856;-77
2024/03/16 14:44:30;;;;;;;;;2.80;2.80;;;;;;;;5069878;28;8853;-76
2024/03/16 14:46:57;;;;;;;;;3.80;3.80;;;;;;;;5069534;28;8867;-77
2024/03/16 14:49:24;;;;;;;;;4.40;3.80;;;;;;;;5069203;28;8868;-77
2024/03/16 14:51:55;;;;;;;;;3.60;3.60;;;;;;;;5069786;28;8883;-78
2024/03/16 14:54:21;;;;;;;;;4.40;3.80;;;;;;;;5069561;28;8848;-78
2024/03/16 14:56:49;;;;;;;;;6.80;4.00;;;;;;;;5102878;28;8852;-78
2024/03/16 14:59:17;;;;;;;;;3.40;3.40;;;;;;;;5069431;28;8989;-77
2024/03/16 15:01:44;;;;;;;;;3.20;3.20;;;;;;;;5052358;28;8867;-77
2024/03/16 15:04:20;;;;;;;;;2.20;2.20;;;;;;;;5045339;28;8866;-79
2024/03/16 15:06:51;;;;;;;;;3.00;3.00;;;;;;;;5045533;28;8909;-78
2024/03/16 15:09:17;;;;;;;;;4.75;4.75;;;;;;;;5047382;28;9653;-78
2024/03/16 15:11:44;;;;;;;;;2.75;2.75;;;;;;;;5045561;28;8854;-78